sensor_id;sensor_type;location;lat;lon;timestamp;P1;durP1;ratioP1;P2;durP2;ratioP2
46110;SDS011;31849;55.992;37.252;2023-06-14T00:02:28;9.98;;;5.35;;
46110;SDS011;31849;55.992;37.252;2023-06-14T00:07:37;11.65;;;5.93;;
46110;SDS011;31849;55.992;37.252;2023-06-14T00:12:44;12.23;;;5.53;;
46110;SDS011;31849;55.992;37.252;2023-06-14T00:17:48;9.60;;;5.13;;
46110;SDS011;31849;55.992;37.252;2023-06-14T00:22:53;11.80;;;5.50;;
46110;SDS011;31849;55.992;37.252;2023-06-14T00:27:57;11.93;;;5.30;;
46110;SDS011;31849;55.992;37.252;2023-06-14T00:33:01;11.88;;;5.03;;
46110;SDS011;31849;55.992;37.252;2023-06-14T00:38:06;10.32;;;5.35;;
46110;SDS011;31849;55.992;37.252;2023-06-14T00:43:10;12.65;;;5.30;;
46110;SDS011;31849;55.992;37.252;2023-06-14T00:48:14;11.13;;;5.63;;
46110;SDS011;31849;55.992;37.252;2023-06-14T00:53:19;8.25;;;5.30;;
46110;SDS011;31849;55.992;37.252;2023-06-14T00:58:25;8.10;;;4.85;;
46110;SDS011;31849;55.992;37.252;2023-06-14T01:03:29;7.35;;;4.85;;
46110;SDS011;31849;55.992;37.252;2023-06-14T01:08:38;12.00;;;4.95;;
46110;SDS011;31849;55.992;37.252;2023-06-14T01:13:54;12.77;;;5.00;;
46110;SDS011;31849;55.992;37.252;2023-06-14T01:18:59;7.70;;;4.90;;
46110;SDS011;31849;55.992;37.252;2023-06-14T01:24:05;12.18;;;4.85;;
46110;SDS011;31849;55.992;37.252;2023-06-14T01:29:09;10.13;;;5.00;;
46110;SDS011;31849;55.992;37.252;2023-06-14T01:34:13;8.30;;;5.30;;
46110;SDS011;31849;55.992;37.252;2023-06-14T01:39:18;11.82;;;4.97;;
46110;SDS011;31849;55.992;37.252;2023-06-14T01:44:23;9.30;;;5.18;;
46110;SDS011;31849;55.992;37.252;2023-06-14T01:49:28;9.95;;;4.95;;
46110;SDS011;31849;55.992;37.252;2023-06-14T01:54:33;7.17;;;4.77;;
46110;SDS011;31849;55.992;37.252;2023-06-14T01:59:39;8.93;;;4.50;;
46110;SDS011;31849;55.992;37.252;2023-06-14T02:04:43;10.53;;;4.80;;
46110;SDS011;31849;55.992;37.252;2023-06-14T02:09:50;13.85;;;4.60;;
46110;SDS011;31849;55.992;37.252;2023-06-14T02:14:54;9.00;;;4.63;;
46110;SDS011;31849;55.992;37.252;2023-06-14T02:19:58;9.53;;;4.20;;
46110;SDS011;31849;55.992;37.252;2023-06-14T02:25:04;8.50;;;5.45;;
46110;SDS011;31849;55.992;37.252;2023-06-14T02:30:08;10.90;;;4.63;;
46110;SDS011;31849;55.992;37.252;2023-06-14T02:35:13;11.02;;;4.65;;
46110;SDS011;31849;55.992;37.252;2023-06-14T02:40:18;7.43;;;4.65;;
46110;SDS011;31849;55.992;37.252;2023-06-14T02:45:22;8.32;;;5.35;;
46110;SDS011;31849;55.992;37.252;2023-06-14T02:50:26;10.60;;;5.38;;
46110;SDS011;31849;55.992;37.252;2023-06-14T02:55:33;10.05;;;5.10;;
46110;SDS011;31849;55.992;37.252;2023-06-14T03:00:43;10.23;;;5.72;;
46110;SDS011;31849;55.992;37.252;2023-06-14T03:05:47;10.82;;;5.68;;
46110;SDS011;31849;55.992;37.252;2023-06-14T03:10:54;10.80;;;5.53;;
46110;SDS011;31849;55.992;37.252;2023-06-14T03:15:58;9.20;;;5.35;;
46110;SDS011;31849;55.992;37.252;2023-06-14T03:21:04;7.65;;;4.65;;
46110;SDS011;31849;55.992;37.252;2023-06-14T03:26:10;8.15;;;4.70;;
46110;SDS011;31849;55.992;37.252;2023-06-14T03:31:16;7.70;;;4.60;;
46110;SDS011;31849;55.992;37.252;2023-06-14T03:41:25;5.85;;;3.60;;
46110;SDS011;31849;55.992;37.252;2023-06-14T03:46:29;10.00;;;3.67;;
46110;SDS011;31849;55.992;37.252;2023-06-14T03:51:33;7.77;;;3.63;;
46110;SDS011;31849;55.992;37.252;2023-06-14T03:56:38;7.28;;;3.80;;
46110;SDS011;31849;55.992;37.252;2023-06-14T04:01:42;5.50;;;3.35;;
46110;SDS011;31849;55.992;37.252;2023-06-14T04:06:46;6.63;;;3.60;;
46110;SDS011;31849;55.992;37.252;2023-06-14T04:11:53;7.50;;;3.33;;
46110;SDS011;31849;55.992;37.252;2023-06-14T04:16:57;6.60;;;3.33;;
46110;SDS011;31849;55.992;37.252;2023-06-14T04:22:00;4.47;;;3.58;;
46110;SDS011;31849;55.992;37.252;2023-06-14T04:27:05;6.13;;;3.85;;
46110;SDS011;31849;55.992;37.252;2023-06-14T04:32:09;6.70;;;3.30;;
46110;SDS011;31849;55.992;37.252;2023-06-14T04:37:15;5.30;;;3.13;;
46110;SDS011;31849;55.992;37.252;2023-06-14T04:42:20;7.38;;;3.20;;
46110;SDS011;31849;55.992;37.252;2023-06-14T04:47:26;6.32;;;3.30;;
46110;SDS011;31849;55.992;37.252;2023-06-14T04:52:31;6.72;;;3.30;;
46110;SDS011;31849;55.992;37.252;2023-06-14T04:57:38;4.43;;;2.95;;
46110;SDS011;31849;55.992;37.252;2023-06-14T05:02:43;4.68;;;3.22;;
46110;SDS011;31849;55.992;37.252;2023-06-14T05:07:49;6.18;;;3.00;;
46110;SDS011;31849;55.992;37.252;2023-06-14T05:12:54;4.03;;;3.00;;
46110;SDS011;31849;55.992;37.252;2023-06-14T05:17:57;4.45;;;2.90;;
46110;SDS011;31849;55.992;37.252;2023-06-14T05:23:01;4.82;;;3.00;;
46110;SDS011;31849;55.992;37.252;2023-06-14T05:28:06;4.95;;;3.15;;
46110;SDS011;31849;55.992;37.252;2023-06-14T05:33:10;5.30;;;2.88;;
46110;SDS011;31849;55.992;37.252;2023-06-14T05:38:14;6.45;;;3.10;;
46110;SDS011;31849;55.992;37.252;2023-06-14T05:43:19;5.13;;;3.08;;
46110;SDS011;31849;55.992;37.252;2023-06-14T05:48:22;6.13;;;3.22;;
46110;SDS011;31849;55.992;37.252;2023-06-14T05:53:26;6.18;;;3.20;;
46110;SDS011;31849;55.992;37.252;2023-06-14T05:58:31;6.18;;;3.33;;
46110;SDS011;31849;55.992;37.252;2023-06-14T06:03:34;4.38;;;3.20;;
46110;SDS011;31849;55.992;37.252;2023-06-14T06:08:38;3.75;;;3.10;;
46110;SDS011;31849;55.992;37.252;2023-06-14T06:13:43;4.60;;;3.15;;
46110;SDS011;31849;55.992;37.252;2023-06-14T06:18:47;5.30;;;2.97;;
46110;SDS011;31849;55.992;37.252;2023-06-14T06:23:51;5.07;;;3.10;;
46110;SDS011;31849;55.992;37.252;2023-06-14T06:28:56;5.82;;;3.40;;
46110;SDS011;31849;55.992;37.252;2023-06-14T06:33:59;6.22;;;3.50;;
46110;SDS011;31849;55.992;37.252;2023-06-14T06:39:03;4.70;;;2.90;;
46110;SDS011;31849;55.992;37.252;2023-06-14T06:44:13;4.20;;;2.78;;
46110;SDS011;31849;55.992;37.252;2023-06-14T06:49:16;4.88;;;3.80;;
46110;SDS011;31849;55.992;37.252;2023-06-14T06:54:20;5.57;;;3.00;;
46110;SDS011;31849;55.992;37.252;2023-06-14T06:59:25;6.38;;;3.45;;
46110;SDS011;31849;55.992;37.252;2023-06-14T07:04:29;6.80;;;3.28;;
46110;SDS011;31849;55.992;37.252;2023-06-14T07:09:33;5.50;;;3.22;;
46110;SDS011;31849;55.992;37.252;2023-06-14T07:14:38;4.82;;;3.33;;
46110;SDS011;31849;55.992;37.252;2023-06-14T07:19:42;6.20;;;3.17;;
46110;SDS011;31849;55.992;37.252;2023-06-14T07:24:45;4.18;;;3.20;;
46110;SDS011;31849;55.992;37.252;2023-06-14T07:29:50;5.43;;;3.67;;
46110;SDS011;31849;55.992;37.252;2023-06-14T07:34:54;5.13;;;3.20;;
46110;SDS011;31849;55.992;37.252;2023-06-14T07:39:58;4.38;;;3.40;;
46110;SDS011;31849;55.992;37.252;2023-06-14T07:45:05;5.82;;;3.25;;
46110;SDS011;31849;55.992;37.252;2023-06-14T07:50:09;4.13;;;3.20;;
46110;SDS011;31849;55.992;37.252;2023-06-14T07:55:14;6.65;;;3.38;;
46110;SDS011;31849;55.992;37.252;2023-06-14T08:00:20;6.50;;;3.45;;
46110;SDS011;31849;55.992;37.252;2023-06-14T08:05:24;3.63;;;3.03;;
46110;SDS011;31849;55.992;37.252;2023-06-14T08:10:28;4.25;;;3.50;;
46110;SDS011;31849;55.992;37.252;2023-06-14T08:15:33;4.05;;;3.30;;
46110;SDS011;31849;55.992;37.252;2023-06-14T08:20:36;4.55;;;3.45;;
46110;SDS011;31849;55.992;37.252;2023-06-14T08:25:42;4.47;;;3.33;;
46110;SDS011;31849;55.992;37.252;2023-06-14T08:30:47;5.15;;;3.15;;
46110;SDS011;31849;55.992;37.252;2023-06-14T08:35:50;6.18;;;3.22;;
46110;SDS011;31849;55.992;37.252;2023-06-14T08:40:56;4.78;;;3.30;;
46110;SDS011;31849;55.992;37.252;2023-06-14T08:46:03;5.78;;;2.88;;
46110;SDS011;31849;55.992;37.252;2023-06-14T08:51:10;7.25;;;3.03;;
46110;SDS011;31849;55.992;37.252;2023-06-14T08:56:17;3.22;;;2.85;;
46110;SDS011;31849;55.992;37.252;2023-06-14T09:01:23;6.43;;;3.05;;
46110;SDS011;31849;55.992;37.252;2023-06-14T09:06:27;6.95;;;3.08;;
46110;SDS011;31849;55.992;37.252;2023-06-14T09:11:31;6.90;;;2.92;;
46110;SDS011;31849;55.992;37.252;2023-06-14T09:16:36;5.90;;;3.17;;
46110;SDS011;31849;55.992;37.252;2023-06-14T09:21:40;4.80;;;3.03;;
46110;SDS011;31849;55.992;37.252;2023-06-14T09:26:46;6.25;;;2.97;;
46110;SDS011;31849;55.992;37.252;2023-06-14T09:31:51;6.05;;;3.00;;
46110;SDS011;31849;55.992;37.252;2023-06-14T09:36:55;5.85;;;3.20;;
46110;SDS011;31849;55.992;37.252;2023-06-14T09:41:59;4.75;;;3.10;;
46110;SDS011;31849;55.992;37.252;2023-06-14T09:47:04;3.90;;;2.95;;
46110;SDS011;31849;55.992;37.252;2023-06-14T09:52:08;6.20;;;3.33;;
46110;SDS011;31849;55.992;37.252;2023-06-14T09:57:15;5.53;;;3.35;;
46110;SDS011;31849;55.992;37.252;2023-06-14T10:02:24;5.15;;;2.92;;
46110;SDS011;31849;55.992;37.252;2023-06-14T10:07:30;5.97;;;3.10;;
46110;SDS011;31849;55.992;37.252;2023-06-14T10:12:37;6.78;;;3.20;;
46110;SDS011;31849;55.992;37.252;2023-06-14T10:17:43;8.18;;;3.42;;
46110;SDS011;31849;55.992;37.252;2023-06-14T10:22:52;5.72;;;3.20;;
46110;SDS011;31849;55.992;37.252;2023-06-14T10:28:02;5.28;;;3.17;;
46110;SDS011;31849;55.992;37.252;2023-06-14T10:33:09;5.93;;;2.80;;
46110;SDS011;31849;55.992;37.252;2023-06-14T10:38:12;8.20;;;3.25;;
46110;SDS011;31849;55.992;37.252;2023-06-14T10:43:23;4.60;;;3.30;;
46110;SDS011;31849;55.992;37.252;2023-06-14T10:48:31;6.43;;;3.00;;
46110;SDS011;31849;55.992;37.252;2023-06-14T10:53:39;4.38;;;3.00;;
46110;SDS011;31849;55.992;37.252;2023-06-14T10:58:43;4.53;;;3.30;;
46110;SDS011;31849;55.992;37.252;2023-06-14T11:03:51;3.75;;;3.20;;
46110;SDS011;31849;55.992;37.252;2023-06-14T11:14:34;6.07;;;3.13;;
46110;SDS011;31849;55.992;37.252;2023-06-14T11:24:42;6.18;;;3.10;;
46110;SDS011;31849;55.992;37.252;2023-06-14T11:29:49;5.05;;;3.10;;
46110;SDS011;31849;55.992;37.252;2023-06-14T11:34:54;9.35;;;3.13;;
46110;SDS011;31849;55.992;37.252;2023-06-14T11:40:00;7.38;;;2.90;;
46110;SDS011;31849;55.992;37.252;2023-06-14T11:45:07;4.93;;;3.05;;
46110;SDS011;31849;55.992;37.252;2023-06-14T11:50:13;5.30;;;3.17;;
46110;SDS011;31849;55.992;37.252;2023-06-14T11:55:17;7.13;;;3.30;;
46110;SDS011;31849;55.992;37.252;2023-06-14T12:05:29;4.78;;;3.15;;
46110;SDS011;31849;55.992;37.252;2023-06-14T12:10:39;5.97;;;2.83;;
46110;SDS011;31849;55.992;37.252;2023-06-14T12:15:45;4.97;;;3.33;;
46110;SDS011;31849;55.992;37.252;2023-06-14T12:20:59;4.85;;;3.05;;
46110;SDS011;31849;55.992;37.252;2023-06-14T12:26:05;4.88;;;3.30;;
46110;SDS011;31849;55.992;37.252;2023-06-14T12:31:13;5.80;;;3.30;;
46110;SDS011;31849;55.992;37.252;2023-06-14T12:36:19;5.75;;;2.90;;
46110;SDS011;31849;55.992;37.252;2023-06-14T12:41:23;8.90;;;3.08;;
46110;SDS011;31849;55.992;37.252;2023-06-14T12:46:28;4.63;;;3.33;;
46110;SDS011;31849;55.992;37.252;2023-06-14T12:51:34;6.13;;;3.33;;
46110;SDS011;31849;55.992;37.252;2023-06-14T12:56:38;6.53;;;3.00;;
46110;SDS011;31849;55.992;37.252;2023-06-14T13:01:43;7.57;;;3.10;;
46110;SDS011;31849;55.992;37.252;2023-06-14T13:06:50;7.47;;;3.00;;
46110;SDS011;31849;55.992;37.252;2023-06-14T13:11:54;8.02;;;3.17;;
46110;SDS011;31849;55.992;37.252;2023-06-14T13:16:57;6.45;;;3.13;;
46110;SDS011;31849;55.992;37.252;2023-06-14T13:22:03;4.78;;;2.80;;
46110;SDS011;31849;55.992;37.252;2023-06-14T13:27:07;8.20;;;3.17;;
46110;SDS011;31849;55.992;37.252;2023-06-14T13:32:10;5.45;;;3.03;;
46110;SDS011;31849;55.992;37.252;2023-06-14T13:37:15;6.93;;;3.40;;
46110;SDS011;31849;55.992;37.252;2023-06-14T13:42:19;4.35;;;3.20;;
46110;SDS011;31849;55.992;37.252;2023-06-14T13:52:27;5.13;;;3.13;;
46110;SDS011;31849;55.992;37.252;2023-06-14T13:57:31;4.88;;;3.30;;
46110;SDS011;31849;55.992;37.252;2023-06-14T14:02:35;4.30;;;2.85;;
46110;SDS011;31849;55.992;37.252;2023-06-14T14:07:40;5.38;;;3.30;;
46110;SDS011;31849;55.992;37.252;2023-06-14T14:12:44;5.47;;;2.75;;
46110;SDS011;31849;55.992;37.252;2023-06-14T14:17:50;4.75;;;2.92;;
46110;SDS011;31849;55.992;37.252;2023-06-14T14:22:57;3.88;;;2.92;;
46110;SDS011;31849;55.992;37.252;2023-06-14T14:28:01;4.72;;;3.03;;
46110;SDS011;31849;55.992;37.252;2023-06-14T14:38:10;4.68;;;2.92;;
46110;SDS011;31849;55.992;37.252;2023-06-14T14:43:13;4.32;;;2.60;;
46110;SDS011;31849;55.992;37.252;2023-06-14T14:48:17;3.65;;;2.95;;
46110;SDS011;31849;55.992;37.252;2023-06-14T14:53:22;3.40;;;2.58;;
46110;SDS011;31849;55.992;37.252;2023-06-14T14:58:25;3.97;;;2.80;;
46110;SDS011;31849;55.992;37.252;2023-06-14T15:03:29;4.55;;;3.10;;
46110;SDS011;31849;55.992;37.252;2023-06-14T15:08:51;4.43;;;2.72;;
46110;SDS011;31849;55.992;37.252;2023-06-14T15:13:55;4.88;;;2.75;;
46110;SDS011;31849;55.992;37.252;2023-06-14T15:24:04;5.43;;;2.83;;
46110;SDS011;31849;55.992;37.252;2023-06-14T15:29:08;5.00;;;2.97;;
46110;SDS011;31849;55.992;37.252;2023-06-14T15:34:11;4.70;;;2.67;;
46110;SDS011;31849;55.992;37.252;2023-06-14T15:39:16;3.58;;;2.97;;
46110;SDS011;31849;55.992;37.252;2023-06-14T15:44:20;3.30;;;2.72;;
46110;SDS011;31849;55.992;37.252;2023-06-14T15:49:23;3.80;;;2.60;;
46110;SDS011;31849;55.992;37.252;2023-06-14T15:59:32;3.78;;;2.75;;
46110;SDS011;31849;55.992;37.252;2023-06-14T16:04:36;3.88;;;2.53;;
46110;SDS011;31849;55.992;37.252;2023-06-14T16:09:41;4.93;;;3.10;;
46110;SDS011;31849;55.992;37.252;2023-06-14T16:14:44;4.60;;;2.70;;
46110;SDS011;31849;55.992;37.252;2023-06-14T16:19:48;7.93;;;3.42;;
46110;SDS011;31849;55.992;37.252;2023-06-14T16:29:57;6.97;;;2.55;;
46110;SDS011;31849;55.992;37.252;2023-06-14T16:35:00;6.13;;;2.90;;
46110;SDS011;31849;55.992;37.252;2023-06-14T16:40:06;4.60;;;3.10;;
46110;SDS011;31849;55.992;37.252;2023-06-14T16:45:11;3.70;;;2.42;;
46110;SDS011;31849;55.992;37.252;2023-06-14T16:50:14;5.32;;;3.10;;
46110;SDS011;31849;55.992;37.252;2023-06-14T16:55:20;6.88;;;2.75;;
46110;SDS011;31849;55.992;37.252;2023-06-14T17:00:24;3.10;;;2.47;;
46110;SDS011;31849;55.992;37.252;2023-06-14T17:05:28;4.28;;;2.53;;
46110;SDS011;31849;55.992;37.252;2023-06-14T17:10:33;5.05;;;2.85;;
46110;SDS011;31849;55.992;37.252;2023-06-14T17:15:37;4.07;;;2.50;;
46110;SDS011;31849;55.992;37.252;2023-06-14T17:20:40;4.25;;;2.83;;
46110;SDS011;31849;55.992;37.252;2023-06-14T17:25:45;4.38;;;2.75;;
46110;SDS011;31849;55.992;37.252;2023-06-14T17:30:49;5.45;;;3.28;;
46110;SDS011;31849;55.992;37.252;2023-06-14T17:35:53;5.47;;;2.88;;
46110;SDS011;31849;55.992;37.252;2023-06-14T17:40:58;5.45;;;3.20;;
46110;SDS011;31849;55.992;37.252;2023-06-14T17:46:02;5.70;;;3.50;;
46110;SDS011;31849;55.992;37.252;2023-06-14T17:51:06;6.60;;;3.22;;
46110;SDS011;31849;55.992;37.252;2023-06-14T17:56:11;7.50;;;3.80;;
46110;SDS011;31849;55.992;37.252;2023-06-14T18:01:15;5.97;;;3.38;;
46110;SDS011;31849;55.992;37.252;2023-06-14T18:06:22;6.72;;;3.25;;
46110;SDS011;31849;55.992;37.252;2023-06-14T18:11:27;6.57;;;3.20;;
46110;SDS011;31849;55.992;37.252;2023-06-14T18:16:32;7.55;;;3.70;;
46110;SDS011;31849;55.992;37.252;2023-06-14T18:21:36;10.55;;;3.45;;
46110;SDS011;31849;55.992;37.252;2023-06-14T18:26:42;10.43;;;4.30;;
46110;SDS011;31849;55.992;37.252;2023-06-14T18:31:46;10.10;;;4.50;;
46110;SDS011;31849;55.992;37.252;2023-06-14T18:36:49;9.90;;;4.30;;
46110;SDS011;31849;55.992;37.252;2023-06-14T18:41:56;9.05;;;4.50;;
46110;SDS011;31849;55.992;37.252;2023-06-14T18:47:00;9.40;;;4.10;;
46110;SDS011;31849;55.992;37.252;2023-06-14T18:52:05;12.10;;;4.32;;
46110;SDS011;31849;55.992;37.252;2023-06-14T18:57:10;9.43;;;3.60;;
46110;SDS011;31849;55.992;37.252;2023-06-14T19:02:14;11.73;;;4.35;;
46110;SDS011;31849;55.992;37.252;2023-06-14T19:07:18;13.15;;;4.40;;
46110;SDS011;31849;55.992;37.252;2023-06-14T19:12:23;8.07;;;4.27;;
46110;SDS011;31849;55.992;37.252;2023-06-14T19:17:27;11.35;;;4.25;;
46110;SDS011;31849;55.992;37.252;2023-06-14T19:22:30;16.90;;;4.27;;
46110;SDS011;31849;55.992;37.252;2023-06-14T19:27:35;8.63;;;3.97;;
46110;SDS011;31849;55.992;37.252;2023-06-14T19:32:39;8.52;;;3.97;;
46110;SDS011;31849;55.992;37.252;2023-06-14T19:37:43;12.95;;;4.82;;
46110;SDS011;31849;55.992;37.252;2023-06-14T19:42:48;17.73;;;5.72;;
46110;SDS011;31849;55.992;37.252;2023-06-14T19:47:52;10.68;;;4.68;;
46110;SDS011;31849;55.992;37.252;2023-06-14T19:53:12;15.50;;;4.70;;
46110;SDS011;31849;55.992;37.252;2023-06-14T19:58:18;16.42;;;6.10;;
46110;SDS011;31849;55.992;37.252;2023-06-14T20:03:22;15.75;;;5.35;;
46110;SDS011;31849;55.992;37.252;2023-06-14T20:08:25;13.23;;;5.17;;
46110;SDS011;31849;55.992;37.252;2023-06-14T20:13:33;12.40;;;5.55;;
46110;SDS011;31849;55.992;37.252;2023-06-14T20:18:37;15.38;;;5.35;;
46110;SDS011;31849;55.992;37.252;2023-06-14T20:23:41;15.07;;;5.57;;
46110;SDS011;31849;55.992;37.252;2023-06-14T20:28:46;12.80;;;5.10;;
46110;SDS011;31849;55.992;37.252;2023-06-14T20:33:49;15.65;;;4.95;;
46110;SDS011;31849;55.992;37.252;2023-06-14T20:38:53;17.60;;;5.00;;
46110;SDS011;31849;55.992;37.252;2023-06-14T20:43:58;12.40;;;5.00;;
46110;SDS011;31849;55.992;37.252;2023-06-14T20:49:03;11.90;;;5.22;;
46110;SDS011;31849;55.992;37.252;2023-06-14T20:54:06;17.23;;;5.67;;
46110;SDS011;31849;55.992;37.252;2023-06-14T20:59:11;16.73;;;5.43;;
46110;SDS011;31849;55.992;37.252;2023-06-14T21:04:15;12.48;;;5.32;;
46110;SDS011;31849;55.992;37.252;2023-06-14T21:09:19;14.23;;;6.00;;
46110;SDS011;31849;55.992;37.252;2023-06-14T21:14:24;16.70;;;5.83;;
46110;SDS011;31849;55.992;37.252;2023-06-14T21:19:28;11.88;;;5.22;;
46110;SDS011;31849;55.992;37.252;2023-06-14T21:24:31;12.50;;;5.97;;
46110;SDS011;31849;55.992;37.252;2023-06-14T21:29:38;15.13;;;5.30;;
46110;SDS011;31849;55.992;37.252;2023-06-14T21:34:42;13.93;;;5.75;;
46110;SDS011;31849;55.992;37.252;2023-06-14T21:39:46;19.52;;;6.22;;
46110;SDS011;31849;55.992;37.252;2023-06-14T21:44:52;17.43;;;6.00;;
46110;SDS011;31849;55.992;37.252;2023-06-14T21:49:57;14.25;;;5.72;;
46110;SDS011;31849;55.992;37.252;2023-06-14T21:55:01;12.18;;;5.90;;
46110;SDS011;31849;55.992;37.252;2023-06-14T22:00:06;15.02;;;6.35;;
46110;SDS011;31849;55.992;37.252;2023-06-14T22:05:12;16.45;;;5.93;;
46110;SDS011;31849;55.992;37.252;2023-06-14T22:10:16;13.20;;;5.93;;
46110;SDS011;31849;55.992;37.252;2023-06-14T22:15:22;11.40;;;5.55;;
46110;SDS011;31849;55.992;37.252;2023-06-14T22:20:27;17.23;;;5.75;;
46110;SDS011;31849;55.992;37.252;2023-06-14T22:25:34;10.65;;;5.90;;
46110;SDS011;31849;55.992;37.252;2023-06-14T22:30:39;17.10;;;5.80;;
46110;SDS011;31849;55.992;37.252;2023-06-14T22:35:45;13.77;;;6.30;;
46110;SDS011;31849;55.992;37.252;2023-06-14T22:40:49;14.52;;;6.10;;
46110;SDS011;31849;55.992;37.252;2023-06-14T22:45:55;14.65;;;6.05;;
46110;SDS011;31849;55.992;37.252;2023-06-14T22:51:00;12.50;;;5.40;;
46110;SDS011;31849;55.992;37.252;2023-06-14T22:56:04;27.50;;;6.88;;
46110;SDS011;31849;55.992;37.252;2023-06-14T23:01:10;25.03;;;7.03;;
46110;SDS011;31849;55.992;37.252;2023-06-14T23:06:16;14.20;;;6.25;;
46110;SDS011;31849;55.992;37.252;2023-06-14T23:11:27;12.80;;;5.97;;
46110;SDS011;31849;55.992;37.252;2023-06-14T23:16:32;14.43;;;6.43;;
46110;SDS011;31849;55.992;37.252;2023-06-14T23:21:37;12.45;;;6.63;;
46110;SDS011;31849;55.992;37.252;2023-06-14T23:26:40;17.52;;;6.90;;
46110;SDS011;31849;55.992;37.252;2023-06-14T23:31:48;15.20;;;7.25;;
46110;SDS011;31849;55.992;37.252;2023-06-14T23:36:52;11.43;;;6.18;;
46110;SDS011;31849;55.992;37.252;2023-06-14T23:41:56;12.95;;;6.82;;
46110;SDS011;31849;55.992;37.252;2023-06-14T23:47:01;11.87;;;6.60;;
46110;SDS011;31849;55.992;37.252;2023-06-14T23:52:08;11.43;;;6.32;;
46110;SDS011;31849;55.992;37.252;2023-06-14T23:57:12;15.68;;;6.72;;
